Time;durP1;ratioP1;P1;durP2;ratioP2;P2;SDS_P1;SDS_P2;PMS_P1;PMS_P2;Temp;Humidity;BMP_temperature;BMP_pressure;BME280_temperature;BME280_humidity;BME280_pressure;Samples;Min_cycle;Max_cycle;Signal;HPM_P1;HPM_P2
2022/09/10 00:01:33;;;;;;;67.82;20.45;;;;;;;8.45;79.97;99189.56;5074930;28;20135;-80
2022/09/10 00:04:01;;;;;;;61.63;19.83;;;;;;;8.38;80.13;99177.66;5091797;28;20066;-81
2022/09/10 00:06:27;;;;;;;200.98;18.77;;;;;;;8.47;79.76;99192.97;5091330;28;20498;-79
2022/09/10 00:08:56;;;;;;;328.42;22.80;;;;;;;8.31;79.59;99184.38;5091337;28;20040;-79
2022/09/10 00:11:24;;;;;;;135.27;15.60;;;;;;;8.33;79.74;99193.09;5075089;28;20040;-79
2022/09/10 00:13:50;;;;;;;120.38;14.07;;;;;;;8.23;79.51;99186.75;5091190;28;20278;-80
2022/09/10 00:16:18;;;;;;;179.93;16.23;;;;;;;8.27;79.47;99193.53;5091120;28;20043;-79
2022/09/10 00:18:45;;;;;;;153.25;17.00;;;;;;;8.24;79.46;99188.47;5092507;28;20044;-79
2022/09/10 00:21:13;;;;;;;132.52;12.23;;;;;;;8.22;79.44;99185.06;5095028;28;20048;-80
2022/09/10 00:23:39;;;;;;;138.20;13.57;;;;;;;8.22;78.98;99190.38;5096207;28;20131;-79
2022/09/10 00:26:25;;;;;;;177.88;16.35;;;;;;;8.17;79.13;99193.38;5096013;28;20048;-79
2022/09/10 00:28:53;;;;;;;128.30;12.02;;;;;;;7.99;79.25;99173.41;5095125;28;20050;-80
2022/09/10 00:31:20;;;;;;;35.60;11.60;;;;;;;8.02;78.96;99184.69;5061302;28;20056;-79
2022/09/10 00:33:47;;;;;;;79.55;11.77;;;;;;;8.03;78.89;99185.53;5108003;28;20400;-79
2022/09/10 00:36:20;;;;;;;35.40;10.02;;;;;;;8.04;79.43;99187.22;5113320;28;20043;-80
2022/09/10 00:38:47;;;;;;;59.95;11.63;;;;;;;8.03;79.22;99189.03;5065613;28;20054;-79
2022/09/10 00:41:14;;;;;;;28.70;11.27;;;;;;;7.96;79.14;99179.78;5096717;28;20047;-79
2022/09/10 00:43:52;;;;;;;17.08;9.93;;;;;;;7.92;78.95;99193.44;5077520;28;20083;-79
2022/09/10 00:46:46;;;;;;;13.68;10.10;;;;;;;7.86;79.25;99189.41;5095902;28;20140;-79
2022/09/10 00:49:24;;;;;;;11.15;9.23;;;;;;;7.72;79.07;99181.56;5078094;28;20043;-79
2022/09/10 00:51:52;;;;;;;11.57;10.02;;;;;;;7.69;79.21;99187.09;5061018;28;20145;-79
2022/09/10 00:54:21;;;;;;;16.02;10.40;;;;;;;7.60;79.26;99179.75;5094388;28;20443;-79
2022/09/10 00:56:49;;;;;;;14.27;10.23;;;;;;;7.59;79.44;99178.06;5077436;28;20044;-79
2022/09/10 00:59:19;;;;;;;15.02;10.38;;;;;;;7.48;79.73;99169.00;5094332;28;20043;-80
2022/09/10 01:01:45;;;;;;;;;;;;;;;7.57;79.71;99191.47;5077680;28;20047;-79
2022/09/10 01:04:10;;;;;;;13.88;10.23;;;;;;;7.46;79.93;99186.91;5094197;28;19994;-80
2022/09/10 01:06:39;;;;;;;14.35;10.93;;;;;;;7.44;80.03;99191.47;5094125;28;20047;-79
2022/09/10 01:09:06;;;;;;;11.40;10.20;;;;;;;7.54;79.82;99186.34;5095796;28;20135;-81
2022/09/10 01:11:51;;;;;;;13.98;11.75;;;;;;;7.50;79.81;99177.75;5093892;28;20093;-79
2022/09/10 01:14:54;;;;;;;16.33;12.60;;;;;;;7.46;80.39;99192.22;5060619;28;20044;-79
2022/09/10 01:17:27;;;;;;;16.13;12.63;;;;;;;7.48;80.51;99177.00;5095726;28;20475;-78
2022/09/10 01:20:18;;;;;;;18.13;13.35;;;;;;;7.47;80.34;99177.94;5098845;28;20520;-79
2022/09/10 01:23:10;;;;;;;18.42;13.15;;;;;;;7.48;80.71;99184.13;5079242;28;20052;-79
2022/09/10 01:25:59;;;;;;;16.10;13.32;;;;;;;7.54;80.43;99179.22;5078024;28;20168;-78
2022/09/10 01:28:37;;;;;;;17.00;13.30;;;;;;;7.60;80.48;99175.31;5094813;28;20043;-78
2022/09/10 01:31:12;;;;;;;18.90;13.68;;;;;;;7.62;80.48;99180.50;5059468;28;20055;-79
2022/09/10 01:33:46;;;;;;;21.95;15.27;;;;;;;7.71;80.43;99179.84;5077492;28;20055;-79
2022/09/10 01:36:19;;;;;;;18.63;14.88;;;;;;;7.72;80.23;99177.09;5076800;28;20044;-78
2022/09/10 01:38:45;;;;;;;18.02;14.57;;;;;;;7.73;80.05;99172.63;5093884;28;20075;-78
2022/09/10 01:41:12;;;;;;;19.23;15.18;;;;;;;7.73;80.13;99178.78;5076735;28;20398;-78
2022/09/10 01:43:40;;;;;;;;;;;;;;;7.83;79.74;99186.97;5076209;28;20079;-79
2022/09/10 01:46:25;;;;;;;16.83;13.70;;;;;;;7.78;79.73;99178.44;5093858;28;19919;-79
2022/09/10 01:49:09;;;;;;;16.27;13.40;;;;;;;7.77;79.55;99180.25;5060023;28;20036;-78
2022/09/10 01:51:37;;;;;;;19.02;14.55;;;;;;;7.80;79.39;99184.53;5076720;28;20477;-79
2022/09/10 01:54:15;;;;;;;22.35;14.38;;;;;;;7.88;79.32;99181.31;5076272;28;20046;-79
2022/09/10 01:57:06;;;;;;;19.73;14.68;;;;;;;7.94;79.14;99184.41;5076367;28;20153;-79
2022/09/10 01:59:42;;;;;;;21.52;15.55;;;;;;;7.90;78.64;99188.25;5076150;28;20410;-80
2022/09/10 02:02:21;;;;;;;18.70;14.88;;;;;;;7.87;79.11;99193.78;5076366;28;20048;-79
2022/09/10 02:04:50;;;;;;;20.90;16.25;;;;;;;7.99;79.16;99189.38;5093473;28;20156;-79
2022/09/10 02:07:21;;;;;;;19.63;15.45;;;;;;;8.00;78.68;99181.28;5076211;28;20039;-78
2022/09/10 02:09:50;;;;;;;18.88;15.38;;;;;;;8.09;79.04;99190.44;5075827;28;20101;-79
2022/09/10 02:12:18;;;;;;;21.48;15.75;;;;;;;8.09;78.56;99176.28;5075925;28;20135;-78
2022/09/10 02:15:11;;;;;;;23.38;16.05;;;;;;;8.18;78.30;99183.56;5077557;28;20510;-79
2022/09/10 02:17:56;;;;;;;22.40;15.95;;;;;;;8.12;78.05;99189.34;5093314;28;20071;-80
2022/09/10 02:20:22;;;;;;;19.27;14.32;;;;;;;8.17;78.03;99197.84;5076037;28;20164;-79
2022/09/10 02:22:57;;;;;;;19.38;13.80;;;;;;;8.03;77.93;99197.03;5093761;28;20044;-82
2022/09/10 02:25:27;;;;;;;19.52;14.70;;;;;;;7.98;78.22;99187.69;5075994;28;20407;-81
2022/09/10 02:27:56;;;;;;;21.92;16.30;;;;;;;8.00;78.44;99202.56;5059927;28;20380;-80
2022/09/10 02:30:23;;;;;;;21.55;15.35;;;;;;;8.14;78.57;99198.91;5058015;28;20040;-79
2022/09/10 02:32:50;;;;;;;22.90;15.57;;;;;;;8.04;78.44;99188.06;5085105;28;20072;-78
2022/09/10 02:35:17;;;;;;;20.38;15.20;;;;;;;8.14;78.56;99203.41;5073958;28;20040;-79
2022/09/10 02:37:45;;;;;;;24.92;16.35;;;;;;;8.21;78.50;99204.66;5072301;28;20044;-80
2022/09/10 02:40:12;;;;;;;20.60;15.02;;;;;;;8.35;78.64;99207.19;5039015;28;20518;-78
2022/09/10 02:42:38;;;;;;;23.45;15.70;;;;;;;8.30;78.51;99196.00;5072913;28;20082;-80
2022/09/10 02:45:05;;;;;;;22.58;15.63;;;;;;;8.35;78.59;99212.50;5055494;28;20052;-78
2022/09/10 02:47:31;;;;;;;25.60;16.30;;;;;;;8.24;78.87;99199.97;5071972;28;20036;-79
2022/09/10 02:49:57;;;;;;;24.58;16.52;;;;;;;8.32;79.13;99199.41;5055353;28;20468;-79
2022/09/10 02:52:23;;;;;;;24.33;15.98;;;;;;;8.28;78.46;99173.97;5073169;28;20048;-81
2022/09/10 02:54:49;;;;;;;25.10;15.23;;;;;;;8.50;78.50;99197.25;5038947;28;20045;-78
2022/09/10 02:57:15;;;;;;;26.05;17.13;;;;;;;8.59;78.38;99201.88;5081511;28;20047;-78
2022/09/10 02:59:43;;;;;;;26.52;17.40;;;;;;;8.65;78.42;99203.22;5071332;28;20380;-80
2022/09/10 03:02:10;;;;;;;29.05;18.58;;;;;;;8.61;78.51;99177.78;5055564;28;20041;-82
2022/09/10 03:04:38;;;;;;;29.00;17.40;;;;;;;8.83;78.31;99191.19;5074116;28;20048;-82
2022/09/10 03:07:04;;;;;;;29.30;17.83;;;;;;;8.81;77.58;99195.81;5088596;28;20041;-80
2022/09/10 03:09:29;;;;;;;29.75;18.23;;;;;;;8.80;78.09;99180.78;5072062;28;20045;-79
2022/09/10 03:11:55;;;;;;;31.00;18.25;;;;;;;8.78;78.05;99198.69;5072637;28;20085;-83
2022/09/10 03:14:23;;;;;;;31.83;18.55;;;;;;;8.77;78.44;99196.16;5082539;28;20037;-81
2022/09/10 03:16:49;;;;;;;32.33;18.92;;;;;;;8.80;78.38;99191.44;5055827;28;20105;-81
2022/09/10 03:19:16;;;;;;;35.30;20.05;;;;;;;8.94;78.07;99198.38;5055068;28;20094;-78
2022/09/10 03:21:42;;;;;;;33.58;19.40;;;;;;;8.90;77.97;99197.75;5038980;28;20037;-81
2022/09/10 03:24:10;;;;;;;33.35;19.38;;;;;;;8.96;78.35;99202.66;5038335;28;20411;-81
2022/09/10 03:26:36;;;;;;;31.40;19.52;;;;;;;8.96;78.58;99201.78;5072349;28;20518;-80
2022/09/10 03:29:03;;;;;;;41.50;21.35;;;;;;;9.16;78.65;99202.94;5039034;28;20144;-83
2022/09/10 03:31:35;;;;;;;36.75;20.88;;;;;;;9.28;78.02;99210.00;5041758;28;20080;-80
2022/09/10 03:34:02;;;;;;;37.92;21.27;;;;;;;9.37;78.04;99206.63;5054765;28;20041;-79
2022/09/10 03:36:30;;;;;;;34.63;21.00;;;;;;;9.40;77.63;99209.06;5072124;28;20043;-81
2022/09/10 03:38:57;;;;;;;37.35;20.42;;;;;;;9.52;77.55;99203.75;5072007;28;20044;-81
2022/09/10 03:41:27;;;;;;;36.53;20.70;;;;;;;9.52;77.45;99193.06;5071341;28;20407;-79
2022/09/10 03:43:56;;;;;;;37.70;20.88;;;;;;;9.77;77.36;99191.97;5057302;28;20056;-81
2022/09/10 03:46:23;;;;;;;35.08;20.38;;;;;;;9.80;76.67;99195.25;5070291;28;20047;-84
2022/09/10 03:48:49;;;;;;;34.25;19.77;;;;;;;9.95;76.56;99191.38;5054203;28;20515;-78
2022/09/10 03:51:17;;;;;;;29.20;17.92;;;;;;;10.17;76.03;99205.69;5071149;28;20044;-81
2022/09/10 03:53:43;;;;;;;30.15;18.13;;;;;;;10.25;75.76;99207.72;5071309;28;20074;-80
2022/09/10 03:56:10;;;;;;;29.58;16.77;;;;;;;10.33;74.66;99190.13;5091304;28;20051;-81
2022/09/10 03:58:36;;;;;;;24.83;16.67;;;;;;;10.37;73.87;99207.59;5058640;28;20139;-79
2022/09/10 04:01:03;;;;;;;23.30;15.75;;;;;;;10.25;74.22;99210.41;5074722;28;20093;-78
2022/09/10 04:03:31;;;;;;;23.53;16.10;;;;;;;10.37;74.13;99206.75;5058022;28;20041;-80
2022/09/10 04:05:57;;;;;;;23.77;15.77;;;;;;;10.40;73.98;99220.72;5058068;28;20313;-79
2022/09/10 04:08:23;;;;;;;22.85;15.85;;;;;;;10.39;73.93;99235.06;5058264;28;20044;-80
2022/09/10 04:10:50;;;;;;;23.75;15.20;;;;;;;10.26;73.89;99220.13;5074523;28;20074;-81
2022/09/10 04:13:16;;;;;;;21.40;15.55;;;;;;;10.31;74.49;99224.16;5057540;28;20139;-81
2022/09/10 04:15:46;;;;;;;24.35;15.88;;;;;;;10.35;74.35;99204.22;5086299;28;20086;-80
2022/09/10 04:18:12;;;;;;;;;;;;;;;10.47;73.58;99223.75;5058704;28;20076;-80
2022/09/10 04:20:39;;;;;;;21.70;15.52;;;;;;;10.50;73.43;99228.00;5075099;28;20325;-79
2022/09/10 04:23:08;;;;;;;21.92;15.05;;;;;;;10.56;73.16;99224.81;5041802;28;20492;-80
2022/09/10 04:25:36;;;;;;;20.77;15.70;;;;;;;10.55;73.77;99231.13;5041608;28;20040;-79
2022/09/10 04:28:02;;;;;;;20.10;15.55;;;;;;;10.59;73.38;99230.75;5041280;28;20040;-79
2022/09/10 04:30:30;;;;;;;20.98;15.23;;;;;;;10.75;73.24;99233.00;5041618;28;20131;-78
2022/09/10 04:32:56;;;;;;;20.65;15.30;;;;;;;10.76;72.67;99240.09;5073226;28;20205;-78
2022/09/10 04:35:22;;;;;;;19.42;15.27;;;;;;;10.63;72.45;99244.72;5057705;28;20506;-79
2022/09/10 04:37:48;;;;;;;20.40;14.88;;;;;;;10.64;72.30;99246.41;5074599;28;20036;-78
2022/09/10 04:40:14;;;;;;;21.40;16.13;;;;;;;10.67;72.36;99248.84;5057832;28;20055;-79
2022/09/10 04:42:40;;;;;;;23.75;15.77;;;;;;;10.66;72.79;99242.66;5074137;28;20093;-80
2022/09/10 04:45:07;;;;;;;20.95;15.70;;;;;;;10.57;72.36;99250.56;5073478;28;20504;-79
2022/09/10 04:47:33;;;;;;;21.13;16.00;;;;;;;10.68;72.48;99253.19;5056592;28;20056;-81
2022/09/10 04:49:59;;;;;;;24.48;16.60;;;;;;;10.77;72.18;99251.63;5074058;28;20071;-80
2022/09/10 04:52:26;;;;;;;22.85;16.02;;;;;;;10.75;71.67;99246.38;5074121;28;20139;-80
2022/09/10 04:54:52;;;;;;;21.55;15.65;;;;;;;10.77;71.72;99249.78;5074204;28;20067;-80
2022/09/10 04:57:18;;;;;;;21.80;16.70;;;;;;;10.85;71.86;99250.00;5058008;28;20480;-79
2022/09/10 04:59:45;;;;;;;25.00;16.25;;;;;;;10.90;71.44;99254.97;5075403;28;20079;-79
2022/09/10 05:02:12;;;;;;;21.65;14.82;;;;;;;10.86;71.39;99257.03;5057522;28;20049;-81
2022/09/10 05:04:38;;;;;;;18.55;13.77;;;;;;;10.90;70.91;99258.47;5076331;28;20048;-80
2022/09/10 05:07:05;;;;;;;21.27;15.85;;;;;;;10.82;71.31;99254.75;5064116;28;20047;-80
2022/09/10 05:09:32;;;;;;;21.85;15.75;;;;;;;10.79;71.41;99260.34;5076836;28;20048;-80
2022/09/10 05:12:00;;;;;;;24.80;15.02;;;;;;;10.72;71.85;99254.69;5074201;28;20044;-79
2022/09/10 05:14:26;;;;;;;22.00;15.55;;;;;;;10.77;71.54;99254.28;5074108;28;20131;-78
2022/09/10 05:16:54;;;;;;;25.73;16.38;;;;;;;10.78;71.54;99261.34;5057295;28;20043;-81
2022/09/10 05:19:20;;;;;;;19.80;15.60;;;;;;;10.81;71.76;99272.63;5040485;28;20049;-79
2022/09/10 05:21:54;;;;;;;18.48;14.60;;;;;;;10.82;71.72;99268.97;5041961;28;20091;-80
2022/09/10 05:24:20;;;;;;;20.80;15.07;;;;;;;10.95;71.28;99266.16;5040199;28;20045;-80
2022/09/10 05:26:47;;;;;;;18.13;13.52;;;;;;;10.85;71.42;99266.06;5057008;28;20051;-80
2022/09/10 05:29:13;;;;;;;17.40;12.98;;;;;;;11.05;70.70;99258.19;5075041;28;20045;-80
2022/09/10 05:31:40;;;;;;;15.60;13.23;;;;;;;11.27;70.43;99266.13;5056846;28;20092;-79
2022/09/10 05:34:07;;;;;;;15.48;12.45;;;;;;;11.16;69.55;99290.25;5057278;28;20033;-80
2022/09/10 05:36:35;;;;;;;13.52;11.27;;;;;;;11.00;69.57;99265.75;5072904;28;20193;-79
2022/09/10 05:39:02;;;;;;;12.77;11.15;;;;;;;11.15;69.37;99256.47;5073220;28;20102;-80
2022/09/10 05:41:30;;;;;;;14.20;11.65;;;;;;;11.17;69.64;99252.69;5056493;28;20143;-79
2022/09/10 05:43:58;;;;;;;15.27;10.50;;;;;;;11.43;69.52;99260.31;5039653;28;20060;-79
2022/09/10 05:46:25;;;;;;;12.13;10.68;;;;;;;11.47;68.95;99269.81;5073109;28;20037;-80
2022/09/10 05:48:53;;;;;;;12.77;10.30;;;;;;;11.37;68.58;99253.66;5056542;28;20040;-81
2022/09/10 05:51:19;;;;;;;12.43;10.23;;;;;;;11.50;68.62;99271.34;5056375;28;20538;-80
2022/09/10 05:53:47;;;;;;;12.68;10.50;;;;;;;11.67;68.85;99263.59;5056864;28;20051;-80
2022/09/10 05:56:13;;;;;;;9.20;8.27;;;;;;;11.83;67.68;99265.81;5073511;28;20056;-79
2022/09/10 05:58:43;;;;;;;9.82;8.45;;;;;;;11.85;66.96;99266.56;5039976;28;20036;-81
2022/09/10 06:01:10;;;;;;;11.65;8.68;;;;;;;12.05;66.72;99261.28;5055799;28;20059;-80
2022/09/10 06:03:36;;;;;;;9.80;8.80;;;;;;;12.18;66.42;99256.53;5056120;28;20056;-80
2022/09/10 06:06:05;;;;;;;9.57;8.27;;;;;;;12.34;66.33;99256.91;5056220;28;20522;-79
2022/09/10 06:08:34;;;;;;;9.35;7.80;;;;;;;12.33;65.36;99260.53;5039528;28;20036;-79
2022/09/10 06:11:06;;;;;;;9.27;8.20;;;;;;;12.18;65.07;99245.81;5056067;28;20072;-80
2022/09/10 06:13:41;;;;;;;11.68;7.80;;;;;;;12.34;65.27;99250.69;5072614;28;20056;-79
2022/09/10 06:16:07;;;;;;;6.45;5.85;;;;;;;12.16;63.82;99263.88;5055790;28;20047;-80
2022/09/10 06:18:33;;;;;;;10.75;7.32;;;;;;;12.16;63.95;99258.50;5071678;28;20055;-80
2022/09/10 06:21:06;;;;;;;8.75;6.25;;;;;;;12.21;64.41;99264.31;5055842;28;20075;-79
2022/09/10 06:23:32;;;;;;;10.13;7.32;;;;;;;12.17;64.77;99262.03;5055710;28;20440;-80
2022/09/10 06:26:03;;;;;;;10.05;7.38;;;;;;;12.30;64.31;99258.16;5039009;28;20055;-81
2022/09/10 06:28:31;;;;;;;8.82;6.93;;;;;;;12.30;63.88;99270.72;5055969;28;20473;-80
2022/09/10 06:30:58;;;;;;;9.77;7.25;;;;;;;12.17;63.96;99262.88;5038933;28;20392;-79
2022/09/10 06:33:24;;;;;;;8.75;7.40;;;;;;;12.36;64.48;99267.47;5055645;28;20045;-79
2022/09/10 06:35:55;;;;;;;7.22;6.53;;;;;;;12.67;63.75;99252.16;5055690;28;20131;-81
2022/09/10 06:38:23;;;;;;;8.55;5.63;;;;;;;12.82;62.26;99255.28;5072399;28;20159;-80
2022/09/10 06:40:54;;;;;;;8.75;6.72;;;;;;;12.82;62.52;99261.50;5072043;28;20124;-81
2022/09/10 06:43:22;;;;;;;7.53;6.75;;;;;;;13.02;62.21;99258.84;5055301;28;20151;-79
2022/09/10 06:46:14;;;;;;;6.85;6.00;;;;;;;12.95;61.10;99260.41;5055141;28;20068;-80
2022/09/10 06:49:03;;;;;;;9.15;6.60;;;;;;;12.87;62.24;99277.19;5072041;28;20185;-81
2022/09/10 06:51:35;;;;;;;6.60;5.97;;;;;;;12.98;61.52;99270.88;5056050;28;20066;-80
2022/09/10 06:54:02;;;;;;;7.13;6.03;;;;;;;12.71;62.08;99266.97;5038688;28;20048;-80
2022/09/10 06:56:29;;;;;;;7.43;5.97;;;;;;;12.61;62.65;99258.94;5072255;28;20056;-80
2022/09/10 06:58:57;;;;;;;7.05;6.35;;;;;;;12.81;62.42;99254.44;5071908;28;20044;-80
2022/09/10 07:01:24;;;;;;;6.82;6.15;;;;;;;12.78;61.60;99260.09;5071777;28;20048;-79
2022/09/10 07:03:58;;;;;;;6.80;6.20;;;;;;;12.49;62.40;99275.28;5055019;28;20045;-80
2022/09/10 07:06:27;;;;;;;7.05;6.43;;;;;;;12.51;62.41;99262.56;5072910;28;20045;-79
2022/09/10 07:09:02;;;;;;;6.97;6.28;;;;;;;12.58;61.49;99264.56;5039289;28;20040;-79
2022/09/10 07:11:32;;;;;;;9.13;6.55;;;;;;;12.43;61.94;99243.66;5038898;28;20072;-78
2022/09/10 07:14:00;;;;;;;6.10;5.57;;;;;;;12.49;61.70;99256.53;5071580;28;20530;-78
2022/09/10 07:16:29;;;;;;;8.55;6.72;;;;;;;12.59;61.63;99260.06;5054596;28;20044;-79
2022/09/10 07:18:58;;;;;;;7.38;6.68;;;;;;;12.45;62.34;99261.31;5038250;28;20106;-81
2022/09/10 07:21:36;;;;;;;11.52;6.60;;;;;;;12.34;62.73;99256.91;5054523;28;20510;-79
2022/09/10 07:24:04;;;;;;;7.47;6.78;;;;;;;12.42;62.78;99260.72;5054780;28;20042;-79
2022/09/10 07:26:31;;;;;;;7.75;6.57;;;;;;;12.37;62.97;99262.00;5054674;28;20041;-80
2022/09/10 07:28:59;;;;;;;7.40;6.78;;;;;;;12.33;62.95;99239.09;5054460;28;20064;-80
2022/09/10 07:31:30;;;;;;;6.80;6.20;;;;;;;12.47;62.74;99255.78;5038394;28;20032;-79
2022/09/10 07:34:02;;;;;;;7.18;6.30;;;;;;;12.22;62.55;99251.75;5071756;28;20498;-80
2022/09/10 07:36:29;;;;;;;;;;;;;;;12.14;63.05;99252.44;5038448;28;20036;-78
2022/09/10 07:38:57;;;;;;;8.07;6.78;;;;;;;12.03;63.53;99247.16;5054782;28;20379;-79
2022/09/10 07:41:28;;;;;;;7.85;6.50;;;;;;;11.86;64.25;99249.50;5054110;28;20052;-80
2022/09/10 07:43:57;;;;;;;7.85;6.32;;;;;;;11.75;64.49;99252.22;5071233;28;20053;-80
2022/09/10 07:46:28;;;;;;;6.97;6.25;;;;;;;11.72;65.07;99248.97;5038611;28;20048;-81
2022/09/10 07:48:58;;;;;;;6.63;5.80;;;;;;;11.73;64.74;99242.59;5054167;28;20041;-80
2022/09/10 07:51:26;;;;;;;9.32;6.50;;;;;;;11.94;64.69;99248.81;5071198;28;20055;-79
2022/09/10 07:53:56;;;;;;;8.55;6.20;;;;;;;12.08;64.38;99256.50;5037862;28;20045;-79
2022/09/10 07:56:25;;;;;;;8.02;6.35;;;;;;;12.13;63.63;99258.78;5037805;28;20465;-78
2022/09/10 07:58:52;;;;;;;7.13;6.43;;;;;;;12.29;63.69;99236.81;5054488;28;20098;-79
2022/09/10 08:01:20;;;;;;;6.85;5.88;;;;;;;12.19;63.66;99244.00;5037592;28;20045;-80
2022/09/10 08:03:47;;;;;;;6.72;6.03;;;;;;;12.14;63.60;99228.31;5071063;28;20044;-80
2022/09/10 08:06:17;;;;;;;7.30;6.05;;;;;;;12.36;63.36;99249.53;5071087;28;20511;-79
2022/09/10 08:08:44;;;;;;;10.27;5.75;;;;;;;12.53;62.85;99240.00;5054132;28;20116;-80
2022/09/10 08:11:16;;;;;;;6.70;6.07;;;;;;;12.53;62.93;99233.81;5037587;28;20500;-80
2022/09/10 08:13:45;;;;;;;9.73;5.90;;;;;;;12.74;62.64;99249.78;5054494;28;20055;-79
2022/09/10 08:16:15;;;;;;;9.68;5.30;;;;;;;12.59;61.87;99246.63;5037648;28;20040;-80
2022/09/10 08:18:46;;;;;;;8.98;5.85;;;;;;;12.62;61.91;99257.09;5053983;28;20079;-79
2022/09/10 08:21:15;;;;;;;6.43;5.45;;;;;;;12.71;62.42;99256.25;5054078;28;20560;-80
2022/09/10 08:23:42;;;;;;;11.50;5.60;;;;;;;12.75;62.44;99249.66;5037532;28;20518;-81
2022/09/10 08:26:08;;;;;;;8.15;5.43;;;;;;;12.73;61.86;99246.25;5054014;28;20033;-80
2022/09/10 08:28:36;;;;;;;6.13;4.47;;;;;;;12.71;61.75;99245.53;5037485;28;20071;-78
2022/09/10 08:31:07;;;;;;;4.90;4.40;;;;;;;12.61;61.20;99242.00;5054684;28;20052;-78
2022/09/10 08:33:39;;;;;;;6.63;4.00;;;;;;;12.54;61.40;99263.16;5038540;28;20040;-79
2022/09/10 08:36:07;;;;;;;5.95;4.63;;;;;;;12.51;61.75;99257.22;5054460;28;20453;-80
2022/09/10 08:38:40;;;;;;;9.02;4.65;;;;;;;12.41;62.31;99267.91;5071793;28;20519;-80
2022/09/10 08:41:18;;;;;;;4.68;4.38;;;;;;;12.26;62.51;99275.50;5072609;28;20139;-80
2022/09/10 08:43:52;;;;;;;5.53;4.03;;;;;;;12.10;63.34;99262.56;5040897;28;20483;-80
2022/09/10 08:46:26;;;;;;;5.43;4.13;;;;;;;12.07;63.43;99275.38;5057595;28;20052;-79
2022/09/10 08:49:04;;;;;;;5.20;4.70;;;;;;;12.11;63.84;99276.81;5058328;28;20048;-81
2022/09/10 08:51:41;;;;;;;6.05;4.30;;;;;;;12.20;63.46;99256.41;5058392;28;20135;-80
2022/09/10 08:54:18;;;;;;;8.90;4.70;;;;;;;12.28;63.11;99278.88;5044527;28;20534;-81
2022/09/10 08:56:46;;;;;;;6.85;4.80;;;;;;;12.20;63.02;99272.50;5061010;28;20504;-80
2022/09/10 08:59:29;;;;;;;5.50;4.17;;;;;;;12.35;62.27;99269.31;5077767;28;20080;-78
2022/09/10 09:02:18;;;;;;;6.43;4.10;;;;;;;12.32;62.58;99269.56;5040789;28;20492;-80
2022/09/10 09:04:47;;;;;;;4.47;3.53;;;;;;;12.17;62.57;99281.63;5040587;28;20040;-79
2022/09/10 09:07:15;;;;;;;4.05;3.65;;;;;;;12.35;62.06;99258.59;5041655;28;20537;-80
2022/09/10 09:09:50;;;;;;;4.20;3.40;;;;;;;12.36;61.39;99286.22;5057759;28;20040;-80
2022/09/10 09:12:36;;;;;;;6.25;3.95;;;;;;;12.36;61.54;99273.66;5057550;28;20143;-80
2022/09/10 09:15:37;;;;;;;9.32;3.78;;;;;;;12.38;61.81;99281.59;5041737;28;20077;-79
2022/09/10 09:18:03;;;;;;;4.65;3.67;;;;;;;12.44;61.99;99282.88;5057444;28;20045;-79
2022/09/10 09:20:41;;;;;;;3.78;3.10;;;;;;;12.48;62.11;99300.38;5040776;28;20102;-80
2022/09/10 09:23:22;;;;;;;3.85;3.45;;;;;;;12.63;61.33;99288.28;5040304;28;20041;-81
2022/09/10 09:26:02;;;;;;;3.95;3.30;;;;;;;12.91;60.41;99292.03;5040445;28;20098;-79
2022/09/10 09:28:42;;;;;;;3.72;2.60;;;;;;;12.96;60.11;99283.56;5056747;28;20052;-79
2022/09/10 09:31:18;;;;;;;3.25;2.90;;;;;;;13.07;59.42;99270.84;5056747;28;20037;-79
2022/09/10 09:33:49;;;;;;;6.65;2.83;;;;;;;13.13;59.22;99275.66;5040857;28;20048;-79
2022/09/10 09:36:17;;;;;;;;;;;;;;;13.20;58.39;99270.59;5057391;28;20063;-79
2022/09/10 09:38:47;;;;;;;5.20;2.50;;;;;;;13.05;58.25;99271.97;5039968;28;20328;-80
2022/09/10 09:41:41;;;;;;;3.03;2.40;;;;;;;12.95;58.84;99266.63;5040204;28;20370;-80
2022/09/10 09:44:44;;;;;;;4.82;2.60;;;;;;;12.85;59.48;99271.97;5039578;28;20152;-79
2022/09/10 09:47:10;;;;;;;2.42;2.22;;;;;;;12.74;59.12;99280.13;5056474;28;20077;-80
2022/09/10 09:49:39;;;;;;;3.92;2.63;;;;;;;12.71;59.15;99275.03;5039840;28;20041;-79
2022/09/10 09:52:18;;;;;;;3.72;2.50;;;;;;;12.88;59.67;99276.19;5054952;28;20048;-79
2022/09/10 09:54:58;;;;;;;2.58;2.30;;;;;;;13.20;59.02;99275.09;5072590;28;20173;-79
2022/09/10 09:57:24;;;;;;;2.85;2.33;;;;;;;13.39;58.02;99271.59;5072774;28;20079;-79
2022/09/10 09:59:50;;;;;;;3.00;2.63;;;;;;;13.29;58.15;99283.19;5056351;28;20063;-79
2022/09/10 10:02:22;;;;;;;3.38;2.58;;;;;;;13.33;58.26;99284.59;5039480;28;20049;-79
2022/09/10 10:05:21;;;;;;;9.25;2.60;;;;;;;13.53;58.42;99281.91;5056465;28;20063;-79
2022/09/10 10:07:48;;;;;;;3.65;2.67;;;;;;;13.74;57.55;99279.88;5073339;28;20079;-78
2022/09/10 10:10:23;;;;;;;4.07;2.70;;;;;;;13.64;57.16;99262.94;5038931;28;20487;-78
2022/09/10 10:12:53;;;;;;;4.07;2.67;;;;;;;13.56;56.83;99276.25;5072800;28;20545;-79
2022/09/10 10:15:37;;;;;;;4.75;2.83;;;;;;;13.54;57.18;99278.22;5039738;28;20045;-79
2022/09/10 10:18:21;;;;;;;4.63;3.10;;;;;;;13.41;57.38;99289.25;5056247;28;20055;-80
2022/09/10 10:21:03;;;;;;;3.63;2.72;;;;;;;13.43;56.97;99283.75;5055690;28;20045;-80
2022/09/10 10:23:37;;;;;;;2.35;2.15;;;;;;;13.43;56.12;99276.56;5055672;28;20043;-79
2022/09/10 10:26:27;;;;;;;2.58;1.98;;;;;;;13.75;55.40;99276.19;5055511;28;20048;-78
2022/09/10 10:28:57;;;;;;;5.72;2.60;;;;;;;14.13;53.82;99281.63;5055451;28;20054;-80
2022/09/10 10:31:31;;;;;;;3.53;2.53;;;;;;;14.77;53.02;99280.78;5072272;28;20568;-80
2022/09/10 10:34:08;;;;;;;3.38;2.22;;;;;;;14.77;52.61;99273.53;5072063;28;20080;-79
2022/09/10 10:36:44;;;;;;;15.63;2.45;;;;;;;14.33;53.50;99269.81;5055606;28;20041;-79
2022/09/10 10:39:46;;;;;;;5.75;2.20;;;;;;;13.99;53.77;99285.63;5055658;28;20507;-79
2022/09/10 10:42:31;;;;;;;2.72;2.17;;;;;;;14.06;53.40;99282.19;5038443;28;20048;-79
2022/09/10 10:45:07;;;;;;;2.15;1.98;;;;;;;13.81;53.28;99282.84;5055028;28;20048;-79
2022/09/10 10:47:54;;;;;;;6.00;2.00;;;;;;;13.66;54.11;99293.19;5038825;28;20381;-79
2022/09/10 10:50:54;;;;;;;2.08;1.83;;;;;;;13.40;54.20;99281.34;5071820;28;20099;-78
2022/09/10 10:53:33;;;;;;;3.70;1.90;;;;;;;13.46;55.10;99297.72;5055967;28;20048;-80
2022/09/10 10:56:26;;;;;;;6.68;1.70;;;;;;;13.40;55.03;99310.88;5072137;28;20052;-81
2022/09/10 10:58:52;;;;;;;2.20;1.60;;;;;;;13.42;55.54;99296.31;5055209;28;20044;-80
2022/09/10 11:01:32;;;;;;;6.85;2.13;;;;;;;13.50;54.92;99317.97;5038489;28;20518;-80
2022/09/10 11:04:09;;;;;;;4.40;1.85;;;;;;;13.41;55.34;99299.16;5051666;28;20503;-80
2022/09/10 11:06:43;;;;;;;1.90;1.63;;;;;;;13.60;55.00;99294.59;5055070;28;20510;-80
2022/09/10 11:09:37;;;;;;;1.92;1.83;;;;;;;13.86;53.91;99291.31;5038578;28;20051;-80
2022/09/10 11:12:25;;;;;;;5.47;2.58;;;;;;;14.14;52.97;99286.88;5055476;28;20041;-79
2022/09/10 11:14:59;;;;;;;7.80;1.88;;;;;;;14.26;52.46;99304.50;5055006;28;20135;-79
2022/09/10 11:17:38;;;;;;;3.47;1.40;;;;;;;14.54;51.45;99309.94;5071370;28;20040;-80
2022/09/10 11:20:17;;;;;;;1.58;1.48;;;;;;;14.50;51.03;99298.63;5071345;28;20044;-80
2022/09/10 11:22:50;;;;;;;;;;;;;;;14.48;50.08;99323.94;5071914;28;20097;-80
2022/09/10 11:25:26;;;;;;;4.22;1.60;;;;;;;14.45;50.80;99311.63;5038136;28;19927;-78
2022/09/10 11:28:04;;;;;;;4.88;1.50;;;;;;;14.28;49.71;99302.50;5071386;28;20044;-79
2022/09/10 11:30:32;;;;;;;3.72;1.80;;;;;;;14.23;50.32;99307.47;5072749;28;20041;-79
2022/09/10 11:33:26;;;;;;;2.97;1.60;;;;;;;14.14;50.83;99303.00;5037753;28;20040;-79
2022/09/10 11:36:02;;;;;;;1.80;1.63;;;;;;;14.29;51.32;99314.97;5071297;28;20054;-78
2022/09/10 11:38:42;;;;;;;2.17;1.80;;;;;;;14.43;50.67;99318.16;5072531;28;20082;-80
2022/09/10 11:41:33;;;;;;;2.80;1.70;;;;;;;14.40;49.54;99308.53;5071641;28;20044;-79
2022/09/10 11:44:14;;;;;;;9.55;1.80;;;;;;;14.38;48.52;99326.66;5037691;28;20082;-79
2022/09/10 11:47:09;;;;;;;5.20;1.65;;;;;;;14.20;47.98;99313.13;5054687;28;20040;-78
2022/09/10 11:49:46;;;;;;;3.38;1.60;;;;;;;14.13;47.26;99317.41;5062833;28;20094;-80
2022/09/10 11:52:13;;;;;;;2.42;1.80;;;;;;;14.32;46.88;99311.97;5072365;28;20496;-80